sensor_id;sensor_type;location;lat;lon;timestamp;pressure;altitude;pressure_sealevel;temperature;humidity
69909;BME280;57190;47.918;8.112;2023-07-20T00:00:59;90960.63;;;15.88;61.83
69909;BME280;57190;47.918;8.112;2023-07-20T00:03:24;90959.03;;;15.87;62.50
69909;BME280;57190;47.918;8.112;2023-07-20T00:05:51;90961.78;;;15.82;62.56
69909;BME280;57190;47.918;8.112;2023-07-20T00:08:17;90957.97;;;15.83;62.17
69909;BME280;57190;47.918;8.112;2023-07-20T00:10:43;90967.94;;;15.82;62.23
69909;BME280;57190;47.918;8.112;2023-07-20T00:13:10;90961.66;;;15.73;62.74
69909;BME280;57190;47.918;8.112;2023-07-20T00:15:36;90966.53;;;15.71;62.84
69909;BME280;57190;47.918;8.112;2023-07-20T00:18:03;90958.25;;;15.67;63.53
69909;BME280;57190;47.918;8.112;2023-07-20T00:20:29;90959.22;;;15.57;63.25
69909;BME280;57190;47.918;8.112;2023-07-20T00:22:54;90962.28;;;15.51;63.40
69909;BME280;57190;47.918;8.112;2023-07-20T00:25:23;90963.97;;;15.47;63.17
69909;BME280;57190;47.918;8.112;2023-07-20T00:27:48;90970.97;;;15.48;63.32
69909;BME280;57190;47.918;8.112;2023-07-20T00:30:13;90967.97;;;15.49;63.86
69909;BME280;57190;47.918;8.112;2023-07-20T00:32:39;90962.91;;;15.48;63.98
69909;BME280;57190;47.918;8.112;2023-07-20T00:35:05;90960.47;;;15.46;63.80
69909;BME280;57190;47.918;8.112;2023-07-20T00:37:30;90960.22;;;15.48;64.00
69909;BME280;57190;47.918;8.112;2023-07-20T00:39:56;90965.13;;;15.40;63.91
69909;BME280;57190;47.918;8.112;2023-07-20T00:42:22;90961.66;;;15.40;64.08
69909;BME280;57190;47.918;8.112;2023-07-20T00:44:47;90963.25;;;15.41;63.54
69909;BME280;57190;47.918;8.112;2023-07-20T00:47:13;90962.69;;;15.44;64.18
69909;BME280;57190;47.918;8.112;2023-07-20T00:49:39;90960.06;;;15.39;64.57
69909;BME280;57190;47.918;8.112;2023-07-20T00:52:06;90957.97;;;15.36;64.34
69909;BME280;57190;47.918;8.112;2023-07-20T00:54:32;90958.34;;;15.29;64.34
69909;BME280;57190;47.918;8.112;2023-07-20T00:57:00;90963.72;;;15.29;64.35
69909;BME280;57190;47.918;8.112;2023-07-20T00:59:26;90954.84;;;15.29;64.29
69909;BME280;57190;47.918;8.112;2023-07-20T01:01:52;90955.97;;;15.28;64.40
69909;BME280;57190;47.918;8.112;2023-07-20T01:04:18;90947.75;;;15.19;65.27
69909;BME280;57190;47.918;8.112;2023-07-20T01:07:05;90948.94;;;15.13;64.88
69909;BME280;57190;47.918;8.112;2023-07-20T01:09:45;90946.25;;;15.13;64.44
69909;BME280;57190;47.918;8.112;2023-07-20T01:12:26;90948.94;;;15.13;64.27
69909;BME280;57190;47.918;8.112;2023-07-20T01:14:54;90942.75;;;15.12;64.11
69909;BME280;57190;47.918;8.112;2023-07-20T01:17:20;90940.34;;;15.11;64.02
69909;BME280;57190;47.918;8.112;2023-07-20T01:19:46;90947.84;;;15.14;64.08
69909;BME280;57190;47.918;8.112;2023-07-20T01:33:05;90930.16;;;14.93;64.97
69909;BME280;57190;47.918;8.112;2023-07-20T01:35:33;90932.03;;;14.93;64.89
69909;BME280;57190;47.918;8.112;2023-07-20T01:38:00;90935.88;;;14.87;64.86
69909;BME280;57190;47.918;8.112;2023-07-20T01:40:26;90948.78;;;14.85;64.89
69909;BME280;57190;47.918;8.112;2023-07-20T01:42:52;90938.34;;;14.83;65.12
69909;BME280;57190;47.918;8.112;2023-07-20T01:45:19;90929.06;;;14.75;65.30
69909;BME280;57190;47.918;8.112;2023-07-20T01:47:44;90936.59;;;14.73;65.40
69909;BME280;57190;47.918;8.112;2023-07-20T01:50:10;90930.75;;;14.71;65.57
69909;BME280;57190;47.918;8.112;2023-07-20T01:52:35;90933.47;;;14.66;66.02
69909;BME280;57190;47.918;8.112;2023-07-20T01:55:01;90929.75;;;14.62;66.06
69909;BME280;57190;47.918;8.112;2023-07-20T01:57:27;90925.25;;;14.57;66.26
69909;BME280;57190;47.918;8.112;2023-07-20T01:59:52;90933.97;;;14.49;66.25
69909;BME280;57190;47.918;8.112;2023-07-20T02:02:18;90918.63;;;14.50;66.32
69909;BME280;57190;47.918;8.112;2023-07-20T02:04:43;90931.78;;;14.51;66.57
69909;BME280;57190;47.918;8.112;2023-07-20T02:07:09;90928.38;;;14.45;66.74
69909;BME280;57190;47.918;8.112;2023-07-20T02:09:34;90920.59;;;14.44;66.99
69909;BME280;57190;47.918;8.112;2023-07-20T02:12:00;90922.03;;;14.36;67.15
69909;BME280;57190;47.918;8.112;2023-07-20T02:14:25;90927.50;;;14.31;67.05
69909;BME280;57190;47.918;8.112;2023-07-20T02:16:51;90926.38;;;14.32;66.89
69909;BME280;57190;47.918;8.112;2023-07-20T02:19:18;90923.69;;;14.32;66.95
69909;BME280;57190;47.918;8.112;2023-07-20T02:21:44;90918.63;;;14.30;67.35
69909;BME280;57190;47.918;8.112;2023-07-20T02:24:09;90926.38;;;14.32;67.37
69909;BME280;57190;47.918;8.112;2023-07-20T02:26:35;90922.13;;;14.31;67.41
69909;BME280;57190;47.918;8.112;2023-07-20T02:29:00;90921.81;;;14.33;67.43
69909;BME280;57190;47.918;8.112;2023-07-20T02:31:25;90919.47;;;14.26;67.38
69909;BME280;57190;47.918;8.112;2023-07-20T02:33:51;90916.88;;;14.21;67.39
69909;BME280;57190;47.918;8.112;2023-07-20T02:36:16;90918.47;;;14.22;67.43
69909;BME280;57190;47.918;8.112;2023-07-20T02:38:42;90924.75;;;14.12;67.12
69909;BME280;57190;47.918;8.112;2023-07-20T02:41:08;90921.19;;;14.17;66.82
69909;BME280;57190;47.918;8.112;2023-07-20T02:43:33;90929.56;;;14.15;67.06
69909;BME280;57190;47.918;8.112;2023-07-20T02:45:59;90926.66;;;14.11;67.00
69909;BME280;57190;47.918;8.112;2023-07-20T02:48:24;90926.19;;;14.04;67.67
69909;BME280;57190;47.918;8.112;2023-07-20T02:50:50;90927.56;;;14.02;67.96
69909;BME280;57190;47.918;8.112;2023-07-20T02:53:15;90926.75;;;14.01;67.76
69909;BME280;57190;47.918;8.112;2023-07-20T02:55:41;90924.19;;;13.91;67.92
69909;BME280;57190;47.918;8.112;2023-07-20T02:58:06;90930.63;;;13.90;67.90
69909;BME280;57190;47.918;8.112;2023-07-20T03:00:32;90933.91;;;13.87;68.20
69909;BME280;57190;47.918;8.112;2023-07-20T03:02:58;90927.94;;;13.90;68.35
69909;BME280;57190;47.918;8.112;2023-07-20T03:05:23;90930.41;;;13.86;68.08
69909;BME280;57190;47.918;8.112;2023-07-20T03:07:50;90928.56;;;13.81;68.25
69909;BME280;57190;47.918;8.112;2023-07-20T03:10:16;90928.06;;;13.79;68.34
69909;BME280;57190;47.918;8.112;2023-07-20T03:12:42;90927.09;;;13.70;68.15
69909;BME280;57190;47.918;8.112;2023-07-20T03:15:08;90927.44;;;13.63;68.43
69909;BME280;57190;47.918;8.112;2023-07-20T03:17:34;90928.25;;;13.64;68.62
69909;BME280;57190;47.918;8.112;2023-07-20T03:19:59;90931.19;;;13.62;68.79
69909;BME280;57190;47.918;8.112;2023-07-20T03:22:26;90920.69;;;13.66;68.89
69909;BME280;57190;47.918;8.112;2023-07-20T03:24:51;90930.03;;;13.68;68.81
69909;BME280;57190;47.918;8.112;2023-07-20T03:27:17;90917.41;;;13.74;68.75
69909;BME280;57190;47.918;8.112;2023-07-20T03:29:43;90922.81;;;13.69;68.90
69909;BME280;57190;47.918;8.112;2023-07-20T03:32:09;90913.97;;;13.68;68.83
69909;BME280;57190;47.918;8.112;2023-07-20T03:34:35;90929.78;;;13.70;68.79
69909;BME280;57190;47.918;8.112;2023-07-20T03:37:01;90928.72;;;13.66;69.03
69909;BME280;57190;47.918;8.112;2023-07-20T03:39:26;90930.63;;;13.65;69.34
69909;BME280;57190;47.918;8.112;2023-07-20T03:41:52;90919.94;;;13.60;69.36
69909;BME280;57190;47.918;8.112;2023-07-20T03:44:17;90928.34;;;13.54;69.39
69909;BME280;57190;47.918;8.112;2023-07-20T03:46:43;90927.81;;;13.51;69.62
69909;BME280;57190;47.918;8.112;2023-07-20T03:49:09;90931.88;;;13.49;69.84
69909;BME280;57190;47.918;8.112;2023-07-20T03:51:35;90934.88;;;13.42;70.26
69909;BME280;57190;47.918;8.112;2023-07-20T03:54:01;90934.63;;;13.39;70.43
69909;BME280;57190;47.918;8.112;2023-07-20T03:56:27;90938.66;;;13.36;70.38
69909;BME280;57190;47.918;8.112;2023-07-20T03:58:53;90933.81;;;13.38;69.99
69909;BME280;57190;47.918;8.112;2023-07-20T04:01:18;90935.16;;;13.41;69.76
69909;BME280;57190;47.918;8.112;2023-07-20T04:03:44;90933.25;;;13.41;69.75
69909;BME280;57190;47.918;8.112;2023-07-20T04:06:09;90927.66;;;13.43;69.61
69909;BME280;57190;47.918;8.112;2023-07-20T04:08:36;90935.38;;;13.44;69.67
69909;BME280;57190;47.918;8.112;2023-07-20T04:11:02;90938.06;;;13.44;69.35
69909;BME280;57190;47.918;8.112;2023-07-20T04:13:28;90935.69;;;13.43;69.69
69909;BME280;57190;47.918;8.112;2023-07-20T04:15:54;90940.22;;;13.42;69.96
69909;BME280;57190;47.918;8.112;2023-07-20T04:18:20;90942.38;;;13.40;70.24
69909;BME280;57190;47.918;8.112;2023-07-20T04:20:46;90939.69;;;13.40;70.06
69909;BME280;57190;47.918;8.112;2023-07-20T04:23:12;90940.22;;;13.42;70.08
69909;BME280;57190;47.918;8.112;2023-07-20T04:25:39;90942.59;;;13.49;70.15
69909;BME280;57190;47.918;8.112;2023-07-20T04:28:06;90943.34;;;13.55;70.20
69909;BME280;57190;47.918;8.112;2023-07-20T04:30:37;90939.53;;;13.61;70.34
69909;BME280;57190;47.918;8.112;2023-07-20T04:33:03;90938.34;;;13.72;69.96
69909;BME280;57190;47.918;8.112;2023-07-20T04:35:56;90945.25;;;13.78;69.84
69909;BME280;57190;47.918;8.112;2023-07-20T04:38:21;90943.03;;;13.86;69.28
69909;BME280;57190;47.918;8.112;2023-07-20T04:40:48;90944.88;;;13.85;69.51
69909;BME280;57190;47.918;8.112;2023-07-20T04:43:14;90945.38;;;13.92;69.14
69909;BME280;57190;47.918;8.112;2023-07-20T04:45:40;90941.31;;;13.95;69.83
69909;BME280;57190;47.918;8.112;2023-07-20T04:48:13;90935.88;;;14.00;69.70
69909;BME280;57190;47.918;8.112;2023-07-20T04:50:43;90940.16;;;14.01;70.31
69909;BME280;57190;47.918;8.112;2023-07-20T04:53:10;90941.13;;;14.10;70.24
69909;BME280;57190;47.918;8.112;2023-07-20T04:55:37;90940.59;;;14.33;69.56
69909;BME280;57190;47.918;8.112;2023-07-20T04:58:04;90944.47;;;14.45;69.16
69909;BME280;57190;47.918;8.112;2023-07-20T05:00:30;90939.06;;;14.70;68.86
69909;BME280;57190;47.918;8.112;2023-07-20T05:02:56;90935.28;;;14.71;68.75
69909;BME280;57190;47.918;8.112;2023-07-20T05:05:21;90937.28;;;14.60;69.41
69909;BME280;57190;47.918;8.112;2023-07-20T05:07:47;90939.09;;;14.45;70.22
69909;BME280;57190;47.918;8.112;2023-07-20T05:10:13;90940.47;;;14.43;70.59
69909;BME280;57190;47.918;8.112;2023-07-20T05:12:39;90939.63;;;14.48;70.27
69909;BME280;57190;47.918;8.112;2023-07-20T05:15:05;90946.50;;;14.54;70.34
69909;BME280;57190;47.918;8.112;2023-07-20T05:17:30;90938.16;;;14.55;70.40
69909;BME280;57190;47.918;8.112;2023-07-20T05:19:56;90941.88;;;14.59;70.35
69909;BME280;57190;47.918;8.112;2023-07-20T05:22:21;90932.75;;;14.60;70.76
69909;BME280;57190;47.918;8.112;2023-07-20T05:24:47;90938.56;;;14.68;71.02
69909;BME280;57190;47.918;8.112;2023-07-20T05:27:12;90933.63;;;14.75;70.54
69909;BME280;57190;47.918;8.112;2023-07-20T05:29:43;90929.22;;;14.84;70.35
69909;BME280;57190;47.918;8.112;2023-07-20T05:32:09;90931.31;;;15.06;69.46
69909;BME280;57190;47.918;8.112;2023-07-20T05:34:35;90935.63;;;15.21;68.69
69909;BME280;57190;47.918;8.112;2023-07-20T05:37:00;90935.88;;;15.39;67.93
69909;BME280;57190;47.918;8.112;2023-07-20T05:39:26;90931.72;;;15.47;67.11
69909;BME280;57190;47.918;8.112;2023-07-20T05:49:12;90935.03;;;15.57;64.68
69909;BME280;57190;47.918;8.112;2023-07-20T05:51:38;90933.56;;;15.65;64.01
69909;BME280;57190;47.918;8.112;2023-07-20T05:54:03;90934.56;;;15.69;63.30
69909;BME280;57190;47.918;8.112;2023-07-20T05:56:29;90931.75;;;15.75;62.54
69909;BME280;57190;47.918;8.112;2023-07-20T05:58:54;90932.47;;;15.80;62.44
69909;BME280;57190;47.918;8.112;2023-07-20T06:01:20;90935.31;;;15.89;62.77
69909;BME280;57190;47.918;8.112;2023-07-20T06:03:45;90941.81;;;16.02;62.07
69909;BME280;57190;47.918;8.112;2023-07-20T06:06:11;90944.09;;;15.95;60.81
69909;BME280;57190;47.918;8.112;2023-07-20T06:08:37;90934.22;;;15.90;60.60
69909;BME280;57190;47.918;8.112;2023-07-20T06:11:03;90933.03;;;16.38;60.51
69909;BME280;57190;47.918;8.112;2023-07-20T06:13:28;90932.03;;;16.48;59.44
69909;BME280;57190;47.918;8.112;2023-07-20T06:15:54;90934.22;;;16.46;58.87
69909;BME280;57190;47.918;8.112;2023-07-20T06:18:22;90929.44;;;16.43;59.68
69909;BME280;57190;47.918;8.112;2023-07-20T06:20:51;90930.84;;;16.40;60.15
69909;BME280;57190;47.918;8.112;2023-07-20T06:23:18;90936.13;;;16.96;61.05
69909;BME280;57190;47.918;8.112;2023-07-20T06:25:44;90928.81;;;17.33;58.66
69909;BME280;57190;47.918;8.112;2023-07-20T06:28:09;90924.47;;;17.23;58.62
69909;BME280;57190;47.918;8.112;2023-07-20T06:30:35;90922.88;;;17.00;57.51
69909;BME280;57190;47.918;8.112;2023-07-20T06:33:00;90925.94;;;17.07;58.46
69909;BME280;57190;47.918;8.112;2023-07-20T06:35:26;90922.84;;;17.36;58.35
69909;BME280;57190;47.918;8.112;2023-07-20T06:37:51;90922.94;;;17.54;57.42
69909;BME280;57190;47.918;8.112;2023-07-20T06:40:17;90917.91;;;17.38;56.87
69909;BME280;57190;47.918;8.112;2023-07-20T06:42:43;90922.50;;;17.60;57.27
69909;BME280;57190;47.918;8.112;2023-07-20T06:45:08;90920.31;;;17.71;56.50
69909;BME280;57190;47.918;8.112;2023-07-20T06:47:34;90926.94;;;17.56;55.45
69909;BME280;57190;47.918;8.112;2023-07-20T06:50:00;90925.16;;;17.52;55.79
69909;BME280;57190;47.918;8.112;2023-07-20T06:52:25;90930.72;;;17.55;55.66
69909;BME280;57190;47.918;8.112;2023-07-20T06:54:51;90928.88;;;17.65;56.33
69909;BME280;57190;47.918;8.112;2023-07-20T06:57:16;90920.97;;;17.68;55.41
69909;BME280;57190;47.918;8.112;2023-07-20T06:59:42;90934.38;;;17.82;55.53
69909;BME280;57190;47.918;8.112;2023-07-20T07:02:07;90930.94;;;17.90;55.17
69909;BME280;57190;47.918;8.112;2023-07-20T07:04:33;90929.94;;;17.86;55.10
69909;BME280;57190;47.918;8.112;2023-07-20T07:06:59;90927.63;;;17.71;55.11
69909;BME280;57190;47.918;8.112;2023-07-20T07:09:25;90926.19;;;17.65;55.40
69909;BME280;57190;47.918;8.112;2023-07-20T07:11:50;90927.88;;;17.60;55.33
69909;BME280;57190;47.918;8.112;2023-07-20T07:14:16;90919.88;;;17.47;55.62
69909;BME280;57190;47.918;8.112;2023-07-20T07:16:42;90928.59;;;17.43;55.78
69909;BME280;57190;47.918;8.112;2023-07-20T07:19:07;90933.34;;;17.47;55.53
69909;BME280;57190;47.918;8.112;2023-07-20T07:21:33;90930.38;;;17.48;55.49
69909;BME280;57190;47.918;8.112;2023-07-20T07:23:59;90929.69;;;17.42;55.04
69909;BME280;57190;47.918;8.112;2023-07-20T07:26:25;90940.78;;;17.41;55.26
69909;BME280;57190;47.918;8.112;2023-07-20T07:28:50;90937.63;;;17.48;55.76
69909;BME280;57190;47.918;8.112;2023-07-20T07:31:16;90933.47;;;17.64;55.77
69909;BME280;57190;47.918;8.112;2023-07-20T07:33:42;90934.56;;;17.86;54.61
69909;BME280;57190;47.918;8.112;2023-07-20T07:36:07;90930.31;;;18.25;53.54
69909;BME280;57190;47.918;8.112;2023-07-20T07:38:32;90941.72;;;18.22;53.76
69909;BME280;57190;47.918;8.112;2023-07-20T07:40:59;90942.34;;;18.19;54.24
69909;BME280;57190;47.918;8.112;2023-07-20T07:43:24;90936.13;;;18.18;54.03
69909;BME280;57190;47.918;8.112;2023-07-20T07:45:53;90926.94;;;18.19;54.39
69909;BME280;57190;47.918;8.112;2023-07-20T07:48:19;90927.09;;;18.23;54.84
69909;BME280;57190;47.918;8.112;2023-07-20T07:50:45;90924.41;;;18.23;54.42
69909;BME280;57190;47.918;8.112;2023-07-20T07:53:11;90929.97;;;18.27;54.17
69909;BME280;57190;47.918;8.112;2023-07-20T07:55:36;90934.00;;;18.38;53.97
69909;BME280;57190;47.918;8.112;2023-07-20T07:58:02;90929.09;;;18.40;53.84
69909;BME280;57190;47.918;8.112;2023-07-20T08:00:27;90931.31;;;18.38;53.70
69909;BME280;57190;47.918;8.112;2023-07-20T08:02:53;90926.41;;;18.49;53.37
69909;BME280;57190;47.918;8.112;2023-07-20T08:05:18;90931.19;;;18.61;53.04
69909;BME280;57190;47.918;8.112;2023-07-20T08:07:44;90938.19;;;18.62;52.12
69909;BME280;57190;47.918;8.112;2023-07-20T08:10:10;90934.34;;;18.45;53.23
69909;BME280;57190;47.918;8.112;2023-07-20T08:12:36;90927.16;;;18.32;54.35
69909;BME280;57190;47.918;8.112;2023-07-20T08:15:01;90931.03;;;18.48;53.87
69909;BME280;57190;47.918;8.112;2023-07-20T08:17:27;90932.28;;;18.51;54.60
69909;BME280;57190;47.918;8.112;2023-07-20T08:19:52;90930.56;;;18.64;53.68
69909;BME280;57190;47.918;8.112;2023-07-20T08:22:18;90936.81;;;18.82;53.78
69909;BME280;57190;47.918;8.112;2023-07-20T08:24:44;90937.88;;;18.54;53.85
69909;BME280;57190;47.918;8.112;2023-07-20T08:27:10;90937.53;;;18.47;54.21
69909;BME280;57190;47.918;8.112;2023-07-20T08:29:36;90933.78;;;18.66;53.89
69909;BME280;57190;47.918;8.112;2023-07-20T08:32:02;90929.00;;;18.72;54.50
69909;BME280;57190;47.918;8.112;2023-07-20T08:34:28;90929.56;;;19.00;53.31
69909;BME280;57190;47.918;8.112;2023-07-20T08:36:53;90923.84;;;19.01;53.19
69909;BME280;57190;47.918;8.112;2023-07-20T08:39:19;90928.28;;;19.06;53.10
69909;BME280;57190;47.918;8.112;2023-07-20T08:41:48;90930.81;;;19.11;52.37
69909;BME280;57190;47.918;8.112;2023-07-20T08:44:13;90930.84;;;19.20;52.79
69909;BME280;57190;47.918;8.112;2023-07-20T08:46:40;90934.97;;;19.17;52.48
69909;BME280;57190;47.918;8.112;2023-07-20T08:49:06;90925.75;;;19.01;52.58
69909;BME280;57190;47.918;8.112;2023-07-20T08:51:33;90925.81;;;18.69;52.47
69909;BME280;57190;47.918;8.112;2023-07-20T08:53:59;90927.09;;;18.72;53.05
69909;BME280;57190;47.918;8.112;2023-07-20T08:56:26;90928.00;;;18.50;53.32
69909;BME280;57190;47.918;8.112;2023-07-20T08:58:53;90933.59;;;18.71;55.07
69909;BME280;57190;47.918;8.112;2023-07-20T09:01:19;90928.69;;;18.73;53.73
69909;BME280;57190;47.918;8.112;2023-07-20T09:03:45;90931.06;;;18.75;54.16
69909;BME280;57190;47.918;8.112;2023-07-20T09:06:12;90934.72;;;18.70;54.18
69909;BME280;57190;47.918;8.112;2023-07-20T09:08:38;90930.13;;;18.79;54.47
69909;BME280;57190;47.918;8.112;2023-07-20T09:11:04;90933.81;;;18.83;54.11
69909;BME280;57190;47.918;8.112;2023-07-20T09:13:32;90932.03;;;18.79;54.19
69909;BME280;57190;47.918;8.112;2023-07-20T09:15:58;90933.84;;;18.92;54.70
69909;BME280;57190;47.918;8.112;2023-07-20T09:18:28;90918.75;;;19.17;54.37
69909;BME280;57190;47.918;8.112;2023-07-20T09:21:04;90924.13;;;19.53;54.10
69909;BME280;57190;47.918;8.112;2023-07-20T09:23:34;90922.34;;;19.74;53.05
69909;BME280;57190;47.918;8.112;2023-07-20T09:26:01;90920.59;;;19.87;52.89
69909;BME280;57190;47.918;8.112;2023-07-20T09:28:41;90915.50;;;19.94;52.93
69909;BME280;57190;47.918;8.112;2023-07-20T09:31:18;90916.78;;;19.88;52.02
69909;BME280;57190;47.918;8.112;2023-07-20T09:33:47;90919.47;;;19.97;51.45
69909;BME280;57190;47.918;8.112;2023-07-20T09:36:13;90917.47;;;20.24;52.07
69909;BME280;57190;47.918;8.112;2023-07-20T09:38:42;90910.38;;;20.02;51.52
69909;BME280;57190;47.918;8.112;2023-07-20T09:41:13;90911.97;;;20.03;52.41
69909;BME280;57190;47.918;8.112;2023-07-20T09:43:41;90913.44;;;20.30;51.62
69909;BME280;57190;47.918;8.112;2023-07-20T09:46:07;90912.69;;;20.21;51.29
69909;BME280;57190;47.918;8.112;2023-07-20T09:48:32;90916.50;;;20.29;52.23
69909;BME280;57190;47.918;8.112;2023-07-20T09:50:58;90904.75;;;20.16;50.93
69909;BME280;57190;47.918;8.112;2023-07-20T09:53:25;90903.22;;;19.79;51.46
69909;BME280;57190;47.918;8.112;2023-07-20T09:55:52;90908.09;;;20.13;51.74
69909;BME280;57190;47.918;8.112;2023-07-20T09:58:17;90898.75;;;20.40;50.68
69909;BME280;57190;47.918;8.112;2023-07-20T10:00:44;90898.66;;;20.57;49.89
69909;BME280;57190;47.918;8.112;2023-07-20T10:03:14;90896.03;;;20.70;50.59
69909;BME280;57190;47.918;8.112;2023-07-20T10:05:43;90896.81;;;20.79;49.70
69909;BME280;57190;47.918;8.112;2023-07-20T10:08:12;90883.19;;;20.88;50.01
69909;BME280;57190;47.918;8.112;2023-07-20T10:10:41;90894.50;;;20.90;49.57
69909;BME280;57190;47.918;8.112;2023-07-20T10:13:17;90896.03;;;20.70;50.30
69909;BME280;57190;47.918;8.112;2023-07-20T10:16:10;90894.69;;;20.55;50.44
69909;BME280;57190;47.918;8.112;2023-07-20T10:19:31;90886.47;;;20.72;50.65
69909;BME280;57190;47.918;8.112;2023-07-20T10:21:40;90882.03;;;20.98;49.09
69909;BME280;57190;47.918;8.112;2023-07-20T10:24:08;90885.25;;;21.12;48.48
69909;BME280;57190;47.918;8.112;2023-07-20T10:26:35;90881.47;;;21.26;48.13
69909;BME280;57190;47.918;8.112;2023-07-20T10:29:03;90887.59;;;21.23;48.42
69909;BME280;57190;47.918;8.112;2023-07-20T10:31:30;90885.06;;;20.96;48.43
69909;BME280;57190;47.918;8.112;2023-07-20T10:33:59;90884.41;;;20.69;47.30
69909;BME280;57190;47.918;8.112;2023-07-20T10:36:26;90882.09;;;20.59;47.35
69909;BME280;57190;47.918;8.112;2023-07-20T10:38:56;90876.94;;;20.36;48.00
69909;BME280;57190;47.918;8.112;2023-07-20T10:44:07;90885.59;;;20.89;48.20
69909;BME280;57190;47.918;8.112;2023-07-20T10:49:06;90878.50;;;20.97;47.96
69909;BME280;57190;47.918;8.112;2023-07-20T10:51:48;90870.25;;;21.15;48.40
69909;BME280;57190;47.918;8.112;2023-07-20T10:56:51;90873.44;;;20.96;47.18
69909;BME280;57190;47.918;8.112;2023-07-20T10:59:36;90875.03;;;20.97;47.24
69909;BME280;57190;47.918;8.112;2023-07-20T11:02:07;90862.06;;;21.02;48.17
69909;BME280;57190;47.918;8.112;2023-07-20T11:04:41;90865.28;;;20.96;46.18
69909;BME280;57190;47.918;8.112;2023-07-20T11:07:07;90861.72;;;21.04;45.57
69909;BME280;57190;47.918;8.112;2023-07-20T11:09:34;90863.91;;;21.11;45.57
69909;BME280;57190;47.918;8.112;2023-07-20T11:12:14;90862.56;;;21.17;46.65
69909;BME280;57190;47.918;8.112;2023-07-20T11:14:41;90858.50;;;21.11;47.00
69909;BME280;57190;47.918;8.112;2023-07-20T11:17:14;90859.47;;;21.27;48.03
69909;BME280;57190;47.918;8.112;2023-07-20T11:19:41;90857.28;;;21.20;46.66
69909;BME280;57190;47.918;8.112;2023-07-20T11:22:08;90857.81;;;21.14;47.13
69909;BME280;57190;47.918;8.112;2023-07-20T11:24:39;90854.16;;;21.31;46.35
69909;BME280;57190;47.918;8.112;2023-07-20T11:27:05;90848.72;;;21.52;46.64
69909;BME280;57190;47.918;8.112;2023-07-20T11:29:31;90851.69;;;21.59;46.50
69909;BME280;57190;47.918;8.112;2023-07-20T11:31:57;90844.19;;;21.56;46.23
69909;BME280;57190;47.918;8.112;2023-07-20T11:34:24;90845.16;;;21.60;46.61
69909;BME280;57190;47.918;8.112;2023-07-20T11:36:51;90841.88;;;21.46;45.67
69909;BME280;57190;47.918;8.112;2023-07-20T11:39:19;90843.72;;;21.54;46.24
69909;BME280;57190;47.918;8.112;2023-07-20T11:44:19;90845.53;;;21.50;45.99
69909;BME280;57190;47.918;8.112;2023-07-20T11:46:45;90837.31;;;21.59;45.04
69909;BME280;57190;47.918;8.112;2023-07-20T11:49:11;90835.00;;;21.70;46.00
69909;BME280;57190;47.918;8.112;2023-07-20T11:51:39;90833.28;;;21.77;46.16
69909;BME280;57190;47.918;8.112;2023-07-20T11:54:07;90837.81;;;21.73;45.64
69909;BME280;57190;47.918;8.112;2023-07-20T11:56:33;90837.56;;;21.66;43.69
69909;BME280;57190;47.918;8.112;2023-07-20T11:58:58;90833.84;;;21.71;44.76
69909;BME280;57190;47.918;8.112;2023-07-20T12:01:26;90834.66;;;21.71;44.68
69909;BME280;57190;47.918;8.112;2023-07-20T12:03:56;90837.25;;;21.67;44.41
69909;BME280;57190;47.918;8.112;2023-07-20T12:06:28;90830.63;;;21.56;43.63
69909;BME280;57190;47.918;8.112;2023-07-20T12:08:57;90818.81;;;21.40;43.06
69909;BME280;57190;47.918;8.112;2023-07-20T12:11:35;90815.69;;;21.50;44.29
69909;BME280;57190;47.918;8.112;2023-07-20T12:14:11;90820.25;;;21.71;44.14
69909;BME280;57190;47.918;8.112;2023-07-20T12:16:38;90819.06;;;21.80;43.69
69909;BME280;57190;47.918;8.112;2023-07-20T12:19:15;90819.97;;;21.85;42.47
69909;BME280;57190;47.918;8.112;2023-07-20T12:21:42;90814.31;;;21.90;42.30
69909;BME280;57190;47.918;8.112;2023-07-20T12:24:11;90810.59;;;21.94;43.73
69909;BME280;57190;47.918;8.112;2023-07-20T12:26:37;90808.00;;;21.98;42.27
69909;BME280;57190;47.918;8.112;2023-07-20T12:29:03;90810.94;;;22.05;43.13
69909;BME280;57190;47.918;8.112;2023-07-20T12:31:29;90811.06;;;22.34;43.59
69909;BME280;57190;47.918;8.112;2023-07-20T12:33:56;90808.94;;;22.39;43.52
69909;BME280;57190;47.918;8.112;2023-07-20T12:36:22;90810.25;;;22.33;41.98
69909;BME280;57190;47.918;8.112;2023-07-20T12:38:49;90805.16;;;22.32;42.71
69909;BME280;57190;47.918;8.112;2023-07-20T12:41:16;90803.00;;;22.37;41.96
69909;BME280;57190;47.918;8.112;2023-07-20T12:43:42;90807.66;;;22.49;42.78
69909;BME280;57190;47.918;8.112;2023-07-20T12:46:09;90802.53;;;22.72;42.62
69909;BME280;57190;47.918;8.112;2023-07-20T12:48:36;90799.06;;;23.00;41.97
69909;BME280;57190;47.918;8.112;2023-07-20T12:51:07;90788.72;;;23.18;41.82
69909;BME280;57190;47.918;8.112;2023-07-20T12:53:33;90794.72;;;23.24;40.57
69909;BME280;57190;47.918;8.112;2023-07-20T12:55:59;90794.91;;;23.31;41.20
69909;BME280;57190;47.918;8.112;2023-07-20T12:58:25;90791.84;;;23.33;40.85
69909;BME280;57190;47.918;8.112;2023-07-20T13:00:50;90790.97;;;23.29;40.75
69909;BME280;57190;47.918;8.112;2023-07-20T13:03:16;90781.63;;;23.58;40.10
69909;BME280;57190;47.918;8.112;2023-07-20T13:05:44;90779.19;;;23.69;40.74
69909;BME280;57190;47.918;8.112;2023-07-20T13:08:09;90780.13;;;23.61;40.08
69909;BME280;57190;47.918;8.112;2023-07-20T13:10:35;90787.88;;;23.91;40.36
69909;BME280;57190;47.918;8.112;2023-07-20T13:13:00;90778.75;;;23.83;39.31
69909;BME280;57190;47.918;8.112;2023-07-20T13:15:31;90781.28;;;23.76;39.67
69909;BME280;57190;47.918;8.112;2023-07-20T13:17:57;90779.91;;;23.82;40.35
69909;BME280;57190;47.918;8.112;2023-07-20T13:20:24;90783.56;;;23.90;40.11
69909;BME280;57190;47.918;8.112;2023-07-20T13:22:49;90782.34;;;23.87;39.61
69909;BME280;57190;47.918;8.112;2023-07-20T13:25:14;90762.59;;;23.90;39.26
69909;BME280;57190;47.918;8.112;2023-07-20T13:27:40;90764.53;;;24.06;39.06